Time;durP1;ratioP1;P1;durP2;ratioP2;P2;SDS_P1;SDS_P2;PMS_P1;PMS_P2;Temp;Humidity;BMP_temperature;BMP_pressure;BME280_temperature;BME280_humidity;BME280_pressure;Samples;Min_cycle;Max_cycle;Signal;HPM_P1;HPM_P2
2023/06/04 00:00:27;;;;;;;;;;;;;;;;;;6255781;22;19980;-92
2023/06/04 00:02:56;;;;;;;;;;;;;;;;;;6282018;22;19919;-92
2023/06/04 00:05:25;;;;;;;;;;;;;;;;;;6255735;22;19958;-95
2023/06/04 00:07:51;;;;;;;;;;;;;;;;;;6255146;22;19919;-93
2023/06/04 00:10:17;;;;;;;;;;;;;;;;;;6255569;22;19973;-93
2023/06/04 00:12:42;;;;;;;;;;;;;;;;;;6255428;22;19946;-92
2023/06/04 00:15:08;;;;;;;;;;;;;;;;;;6281432;22;19915;-92
2023/06/04 00:17:34;;;;;;;;;;;;;;;;;;6280824;22;19953;-92
2023/06/04 00:20:00;;;;;;;;;;;;;;;;;;6255458;22;19950;-91
2023/06/04 00:22:26;;;;;;;;;;;;;;;;;;6254775;22;20146;-92
2023/06/04 00:24:52;;;;;;;;;;;;;;;;;;6280423;22;19915;-92
2023/06/04 00:27:18;;;;;;;;;;;;;;;;;;6280687;22;19921;-93
2023/06/04 00:29:44;;;;;;;;;;;;;;;;;;6254980;22;19915;-91
2023/06/04 00:32:10;;;;;;;;;;;;;;;;;;6255209;22;19915;-92
2023/06/04 00:34:36;;;;;;;;;;;;;;;;;;6281123;22;20243;-92
2023/06/04 00:37:02;;;;;;;;;;;;;;;;;;6254688;22;19922;-92
2023/06/04 00:39:34;;;;;;;;;;;;;;;;;;6255913;22;19986;-92
2023/06/04 00:42:00;;;;;;;;;;;;;;;;;;6280889;22;19965;-92
2023/06/04 00:44:26;;;;;;;;;;;;;;;;;;6280648;22;20332;-92
2023/06/04 00:46:53;;;;;;;;;;;;;;;;;;6307687;22;20240;-92
2023/06/04 00:49:19;;;;;;;;;;;;;;;;;;6255229;22;20248;-92
2023/06/04 00:51:45;;;;;;;;;;;;;;;;;;6254974;22;19953;-91
2023/06/04 00:54:11;;;;;;;;;;;;;;;;;;6254964;22;19953;-91
2023/06/04 00:56:38;;;;;;;;;;;;;;;;;;6280360;22;20354;-92
2023/06/04 00:59:04;;;;;;;;;;;;;;;;;;6255483;22;19919;-92
2023/06/04 01:01:30;;;;;;;;;;;;;;;;;;6254524;22;19915;-91
2023/06/04 01:03:56;;;;;;;;;;;;;;;;;;6280654;22;19931;-91
2023/06/04 01:06:22;;;;;;;;;;;;;;;;;;6254275;22;20361;-91
2023/06/04 01:08:48;;;;;;;;;;;;;;;;;;6279744;22;19939;-91
2023/06/04 01:11:15;;;;;;;;;;;;;;;;;;6254648;22;19937;-91
2023/06/04 01:13:41;;;;;;;;;;;;;;;;;;6254617;22;20244;-91
2023/06/04 01:16:06;;;;;;;;;;;;;;;;;;6254688;22;19919;-92
2023/06/04 01:18:33;;;;;;;;;;;;;;;;;;6280052;22;19915;-91
2023/06/04 01:20:59;;;;;;;;;;;;;;;;;;6254146;22;19990;-95
2023/06/04 01:23:28;;;;;;;;;;;;;;;;;;6280218;22;20244;-95
2023/06/04 01:25:57;;;;;;;;;;;;;;;;;;6254439;22;19915;-94
2023/06/04 01:28:24;;;;;;;;;;;;;;;;;;6254497;22;19919;-94
2023/06/04 01:30:50;;;;;;;;;;;;;;;;;;6254408;22;19914;-92
2023/06/04 01:33:16;;;;;;;;;;;;;;;;;;6254930;22;20329;-93
2023/06/04 01:35:42;;;;;;;;;;;;;;;;;;6280906;22;19960;-93
2023/06/04 01:38:08;;;;;;;;;;;;;;;;;;6255535;22;19919;-93
2023/06/04 01:40:34;;;;;;;;;;;;;;;;;;6255126;22;19926;-91
2023/06/04 01:43:00;;;;;;;;;;;;;;;;;;6254989;22;19938;-92
2023/06/04 01:45:26;;;;;;;;;;;;;;;;;;6280382;22;20316;-92
2023/06/04 01:47:52;;;;;;;;;;;;;;;;;;6279751;22;19918;-91
2023/06/04 01:50:18;;;;;;;;;;;;;;;;;;6307702;22;19915;-92
2023/06/04 01:52:44;;;;;;;;;;;;;;;;;;6280314;22;19915;-92
2023/06/04 01:55:11;;;;;;;;;;;;;;;;;;6281643;22;19915;-94
2023/06/04 01:57:38;;;;;;;;;;;;;;;;;;6284396;22;19922;-95
2023/06/04 02:00:04;;;;;;;;;;;;;;;;;;6289201;22;19915;-93
2023/06/04 02:02:35;;;;;;;;;;;;;;;;;;6282629;22;19997;-93
2023/06/04 02:05:01;;;;;;;;;;;;;;;;;;6282816;22;20321;-93
2023/06/04 02:07:27;;;;;;;;;;;;;;;;;;6243697;22;20044;-94
2023/06/04 02:09:53;;;;;;;;;;;;;;;;;;6281720;22;19922;-93
2023/06/04 02:12:19;;;;;;;;;;;;;;;;;;6282483;22;20340;-93
2023/06/04 02:14:46;;;;;;;;;;;;;;;;;;6282442;22;19945;-93
2023/06/04 02:17:12;;;;;;;;;;;;;;;;;;6260640;22;19915;-93
2023/06/04 02:19:39;;;;;;;;;;;;;;;;;;6258387;22;19914;-94
2023/06/04 02:22:05;;;;;;;;;;;;;;;;;;6258254;22;19915;-93
2023/06/04 02:24:31;;;;;;;;;;;;;;;;;;6259027;22;19915;-93
2023/06/04 02:26:57;;;;;;;;;;;;;;;;;;6255730;22;19927;-94
2023/06/04 02:29:26;;;;;;;;;;;;;;;;;;6255907;22;19915;-92
2023/06/04 02:31:52;;;;;;;;;;;;;;;;;;6254608;22;19915;-93
2023/06/04 02:34:18;;;;;;;;;;;;;;;;;;6255093;22;20171;-93
2023/06/04 02:36:48;;;;;;;;;;;;;;;;;;6254873;22;20249;-92
2023/06/04 02:39:14;;;;;;;;;;;;;;;;;;6254469;22;19914;-92
2023/06/04 02:41:40;;;;;;;;;;;;;;;;;;6254262;22;20332;-94
2023/06/04 02:44:06;;;;;;;;;;;;;;;;;;6279662;22;19922;-95
2023/06/04 02:46:31;;;;;;;;;;;;;;;;;;6280154;22;20287;-91
2023/06/04 02:48:58;;;;;;;;;;;;;;;;;;6253833;22;19958;-91
2023/06/04 02:51:24;;;;;;;;;;;;;;;;;;6253628;22;19915;-91
2023/06/04 02:53:50;;;;;;;;;;;;;;;;;;6279861;22;19919;-91
2023/06/04 02:56:16;;;;;;;;;;;;;;;;;;6254227;22;20248;-92
2023/06/04 02:58:42;;;;;;;;;;;;;;;;;;6279982;22;19922;-91
2023/06/04 03:01:08;;;;;;;;;;;;;;;;;;6278945;22;19933;-91
2023/06/04 03:03:34;;;;;;;;;;;;;;;;;;6254282;22;19921;-91
2023/06/04 03:06:00;;;;;;;;;;;;;;;;;;6256425;22;19964;-93
2023/06/04 03:08:26;;;;;;;;;;;;;;;;;;6257057;22;20382;-93
2023/06/04 03:10:52;;;;;;;;;;;;;;;;;;6257849;22;19918;-94
2023/06/04 03:13:18;;;;;;;;;;;;;;;;;;6282059;22;19922;-93
2023/06/04 03:15:46;;;;;;;;;;;;;;;;;;6256589;22;19915;-94
2023/06/04 03:18:12;;;;;;;;;;;;;;;;;;6256769;22;19977;-92
2023/06/04 03:20:39;;;;;;;;;;;;;;;;;;6256411;22;20341;-93
2023/06/04 03:23:05;;;;;;;;;;;;;;;;;;6282024;22;19957;-93
2023/06/04 03:25:31;;;;;;;;;;;;;;;;;;6256972;22;20336;-93
2023/06/04 03:27:57;;;;;;;;;;;;;;;;;;6257564;22;19962;-92
2023/06/04 03:30:23;;;;;;;;;;;;;;;;;;6256300;22;19954;-93
2023/06/04 03:32:49;;;;;;;;;;;;;;;;;;6282244;22;19922;-94
2023/06/04 03:35:14;;;;;;;;;;;;;;;;;;6259638;22;19956;-93
2023/06/04 03:37:40;;;;;;;;;;;;;;;;;;6259397;22;19914;-93
2023/06/04 03:40:07;;;;;;;;;;;;;;;;;;6259316;22;19918;-94
2023/06/04 03:42:32;;;;;;;;;;;;;;;;;;6256607;22;20303;-94
2023/06/04 03:44:59;;;;;;;;;;;;;;;;;;6282115;22;19915;-93
2023/06/04 03:47:28;;;;;;;;;;;;;;;;;;6282624;22;19919;-94
2023/06/04 03:50:00;;;;;;;;;;;;;;;;;;6308926;22;19921;-93
2023/06/04 03:52:26;;;;;;;;;;;;;;;;;;6282112;22;19923;-94
2023/06/04 03:54:52;;;;;;;;;;;;;;;;;;6256482;22;19914;-94
2023/06/04 03:57:18;;;;;;;;;;;;;;;;;;6280957;22;19954;-94
2023/06/04 03:59:45;;;;;;;;;;;;;;;;;;6256299;22;19915;-92
2023/06/04 04:02:11;;;;;;;;;;;;;;;;;;6281532;22;19915;-94
2023/06/04 04:04:39;;;;;;;;;;;;;;;;;;6282150;22;19915;-94
2023/06/04 04:07:05;;;;;;;;;;;;;;;;;;6281790;22;19976;-93
2023/06/04 04:09:31;;;;;;;;;;;;;;;;;;6256142;22;19915;-95
2023/06/04 04:11:59;;;;;;;;;;;;;;;;;;6309319;22;19915;-94
2023/06/04 04:14:25;;;;;;;;;;;;;;;;;;6255203;22;19914;-93
2023/06/04 04:16:52;;;;;;;;;;;;;;;;;;6255856;22;19921;-94
2023/06/04 04:19:18;;;;;;;;;;;;;;;;;;6255593;22;19915;-93
2023/06/04 04:21:48;;;;;;;;;;;;;;;;;;6280904;22;19919;-92
2023/06/04 04:24:14;;;;;;;;;;;;;;;;;;6281518;22;20271;-92
2023/06/04 04:26:42;;;;;;;;;;;;;;;;;;6257436;22;20014;-92
2023/06/04 04:29:09;;;;;;;;;;;;;;;;;;6280910;22;20367;-92
2023/06/04 04:31:36;;;;;;;;;;;;;;;;;;6281131;22;19915;-92
2023/06/04 04:34:07;;;;;;;;;;;;;;;;;;6255432;22;19915;-92
2023/06/04 04:36:34;;;;;;;;;;;;;;;;;;6280632;22;20315;-91
2023/06/04 04:39:00;;;;;;;;;;;;;;;;;;6255055;22;20374;-92
2023/06/04 04:41:27;;;;;;;;;;;;;;;;;;6281399;22;19922;-92
2023/06/04 04:43:52;;;;;;;;;;;;;;;;;;6255530;22;20265;-92
2023/06/04 04:46:19;;;;;;;;;;;;;;;;;;6255365;22;19935;-91
2023/06/04 04:48:45;;;;;;;;;;;;;;;;;;6255290;22;19919;-92
2023/06/04 04:51:10;;;;;;;;;;;;;;;;;;6281487;22;20341;-93
2023/06/04 04:53:36;;;;;;;;;;;;;;;;;;6282622;22;19926;-92
2023/06/04 04:56:05;;;;;;;;;;;;;;;;;;6281927;22;19938;-92
2023/06/04 04:58:31;;;;;;;;;;;;;;;;;;6256743;22;20336;-92
2023/06/04 05:00:57;;;;;;;;;;;;;;;;;;6255517;22;19915;-93
2023/06/04 05:03:23;;;;;;;;;;;;;;;;;;6281407;22;20382;-93
2023/06/04 05:05:50;;;;;;;;;;;;;;;;;;6281912;22;20305;-93
2023/06/04 05:08:19;;;;;;;;;;;;;;;;;;6281758;22;20248;-93
2023/06/04 05:10:48;;;;;;;;;;;;;;;;;;6282188;22;19915;-93
2023/06/04 05:13:19;;;;;;;;;;;;;;;;;;6308941;22;19972;-93
2023/06/04 05:15:45;;;;;;;;;;;;;;;;;;6255485;22;19915;-93
2023/06/04 05:18:11;;;;;;;;;;;;;;;;;;6280348;22;19990;-93
2023/06/04 05:20:39;;;;;;;;;;;;;;;;;;6281323;22;19981;-93
2023/06/04 05:23:08;;;;;;;;;;;;;;;;;;6255589;22;19919;-94
2023/06/04 05:25:34;;;;;;;;;;;;;;;;;;6280884;22;20005;-94
2023/06/04 05:28:01;;;;;;;;;;;;;;;;;;6280844;22;19923;-94
2023/06/04 05:30:27;;;;;;;;;;;;;;;;;;6255778;22;19915;-94
2023/06/04 05:32:53;;;;;;;;;;;;;;;;;;6255272;22;19915;-93
2023/06/04 05:35:19;;;;;;;;;;;;;;;;;;6255296;22;19915;-93
2023/06/04 05:37:45;;;;;;;;;;;;;;;;;;6280869;22;19914;-94
2023/06/04 05:40:11;;;;;;;;;;;;;;;;;;6254439;22;20341;-94
2023/06/04 05:42:37;;;;;;;;;;;;;;;;;;6307631;22;19922;-94
2023/06/04 05:45:03;;;;;;;;;;;;;;;;;;6254845;22;20451;-93
2023/06/04 05:47:29;;;;;;;;;;;;;;;;;;6280921;22;19968;-93
2023/06/04 05:49:55;;;;;;;;;;;;;;;;;;6254778;22;20240;-93
2023/06/04 05:52:21;;;;;;;;;;;;;;;;;;6307876;22;19939;-93
2023/06/04 05:54:48;;;;;;;;;;;;;;;;;;6253785;22;19918;-93
2023/06/04 05:57:17;;;;;;;;;;;;;;;;;;6281198;22;20380;-93
2023/06/04 05:59:43;;;;;;;;;;;;;;;;;;6254569;22;20260;-90
2023/06/04 06:02:15;;;;;;;;;;;;;;;;;;6281973;22;20077;-91
2023/06/04 06:04:41;;;;;;;;;;;;;;;;;;6307129;22;19915;-92
2023/06/04 06:07:07;;;;;;;;;;;;;;;;;;6254871;22;19954;-93
2023/06/04 06:09:34;;;;;;;;;;;;;;;;;;6256007;22;19954;-94
2023/06/04 06:12:01;;;;;;;;;;;;;;;;;;6280838;22;19922;-93
2023/06/04 06:14:27;;;;;;;;;;;;;;;;;;6254626;22;19915;-92
2023/06/04 06:16:53;;;;;;;;;;;;;;;;;;6254640;22;19914;-93
2023/06/04 06:19:22;;;;;;;;;;;;;;;;;;6280952;22;20295;-95
2023/06/04 06:21:48;;;;;;;;;;;;;;;;;;6254543;22;20046;-95
2023/06/04 06:24:26;;;;;;;;;;;;;;;;;;6307825;22;19925;-94
2023/06/04 06:26:55;;;;;;;;;;;;;;;;;;6280966;22;19915;-93
2023/06/04 06:29:22;;;;;;;;;;;;;;;;;;6279408;22;20232;-95
2023/06/04 06:31:51;;;;;;;;;;;;;;;;;;6281678;22;19942;-94
2023/06/04 06:34:20;;;;;;;;;;;;;;;;;;6279191;22;19915;-91
2023/06/04 06:36:47;;;;;;;;;;;;;;;;;;6255110;22;20306;-93
2023/06/04 06:39:13;;;;;;;;;;;;;;;;;;6255286;22;19925;-96
2023/06/04 06:41:39;;;;;;;;;;;;;;;;;;6258369;22;19946;-94
2023/06/04 06:44:05;;;;;;;;;;;;;;;;;;6258577;22;19932;-95
2023/06/04 06:46:31;;;;;;;;;;;;;;;;;;6256900;22;19964;-95
2023/06/04 06:48:57;;;;;;;;;;;;;;;;;;6284693;22;19998;-94
2023/06/04 06:51:23;;;;;;;;;;;;;;;;;;6284210;22;19915;-93
2023/06/04 06:53:49;;;;;;;;;;;;;;;;;;6260586;22;19988;-96
2023/06/04 06:56:18;;;;;;;;;;;;;;;;;;6264014;22;19915;-94
2023/06/04 06:59:01;;;;;;;;;;;;;;;;;;6275727;22;19914;-96
2023/06/04 07:01:45;;;;;;;;;;;;;;;;;;6274628;22;19915;-95
2023/06/04 07:04:15;;;;;;;;;;;;;;;;;;6267147;22;19957;-96
2023/06/04 07:06:45;;;;;;;;;;;;;;;;;;6258296;22;19989;-96
2023/06/04 07:09:17;;;;;;;;;;;;;;;;;;6290092;22;20043;-96
2023/06/04 07:11:43;;;;;;;;;;;;;;;;;;6282426;22;19915;-96
2023/06/04 07:14:12;;;;;;;;;;;;;;;;;;6283266;22;19915;-94
2023/06/04 07:16:39;;;;;;;;;;;;;;;;;;6282071;22;19915;-96
2023/06/04 07:19:08;;;;;;;;;;;;;;;;;;6257051;22;19915;-96
2023/06/04 07:21:35;;;;;;;;;;;;;;;;;;6281193;22;20343;-93
2023/06/04 07:24:01;;;;;;;;;;;;;;;;;;6255966;22;20344;-94
2023/06/04 07:26:30;;;;;;;;;;;;;;;;;;6256164;22;19915;-94
2023/06/04 07:28:59;;;;;;;;;;;;;;;;;;6256972;22;19926;-94
2023/06/04 07:31:26;;;;;;;;;;;;;;;;;;6256429;22;20332;-95
2023/06/04 07:33:52;;;;;;;;;;;;;;;;;;6282804;22;19922;-95
2023/06/04 07:36:22;;;;;;;;;;;;;;;;;;6285804;22;19951;-94
2023/06/04 07:38:48;;;;;;;;;;;;;;;;;;6255718;22;20347;-94
2023/06/04 07:41:21;;;;;;;;;;;;;;;;;;6283653;22;19921;-95
2023/06/04 07:43:56;;;;;;;;;;;;;;;;;;6298771;22;20332;-96
2023/06/04 07:46:25;;;;;;;;;;;;;;;;;;6297566;22;19972;-96
2023/06/04 07:58:08;;;;;;;;;;;;;;;;;;6165518;23;19999;-92
2023/06/04 08:00:34;;;;;;;;;;;;;;;;;;6117117;23;19963;-92
2023/06/04 08:03:03;;;;;;;;;;;;;;;;;;6195425;23;19986;-95
2023/06/04 08:05:39;;;;;;;;;;;;;;;;;;6256476;22;19937;-94
2023/06/04 08:08:09;;;;;;;;;;;;;;;;;;6233256;22;19926;-95
2023/06/04 08:10:35;;;;;;;;;;;;;;;;;;6233857;22;19915;-94
2023/06/04 08:13:00;;;;;;;;;;;;;;;;;;6233259;22;19922;-96
2023/06/04 08:15:26;;;;;;;;;;;;;;;;;;6234093;22;19946;-93
2023/06/04 08:17:55;;;;;;;;;;;;;;;;;;6232724;22;19915;-93
2023/06/04 08:20:25;;;;;;;;;;;;;;;;;;6235354;22;19915;-96
2023/06/04 08:25:59;;;;;;;;;;;;;;;;;;6202563;22;19915;-96
2023/06/04 08:31:02;;;;;;;;;;;;;;;;;;6281371;22;20281;-96
2023/06/04 08:33:39;;;;;;;;;;;;;;;;;;6245976;22;19945;-95
2023/06/04 08:36:14;;;;;;;;;;;;;;;;;;;;;
2023/06/04 08:38:41;;;;;;;;;;;;;;;;;;6286793;22;19936;-95
2023/06/04 08:41:16;;;;;;;;;;;;;;;;;;6259093;22;19915;-96
2023/06/04 08:43:51;;;;;;;;;;;;;;;;;;6259333;22;19922;-96
2023/06/04 08:46:41;;;;;;;;;;;;;;;;;;6260958;22;19915;-96
2023/06/04 08:52:22;;;;;;;;;;;;;;;;;;6290214;22;19919;-92
2023/06/04 08:54:48;;;;;;;;;;;;;;;;;;6273926;22;19941;-96
2023/06/04 09:02:18;;;;;;;;;;;;;;;;;;6316769;22;19943;-94
2023/06/04 09:04:44;;;;;;;;;;;;;;;;;;6309216;22;19915;-91
2023/06/04 09:07:10;;;;;;;;;;;;;;;;;;6306711;22;19989;-93
2023/06/04 09:09:36;;;;;;;;;;;;;;;;;;6286439;22;19915;-95
2023/06/04 09:12:02;;;;;;;;;;;;;;;;;;6283841;22;19919;-94
2023/06/04 09:14:31;;;;;;;;;;;;;;;;;;6283832;22;19915;-93
2023/06/04 09:16:58;;;;;;;;;;;;;;;;;;6281487;22;19983;-93
2023/06/04 09:19:24;;;;;;;;;;;;;;;;;;6305446;22;19929;-95
2023/06/04 09:21:50;;;;;;;;;;;;;;;;;;6306994;22;19914;-94
2023/06/04 09:24:16;;;;;;;;;;;;;;;;;;6281158;22;20037;-96
2023/06/04 09:26:42;;;;;;;;;;;;;;;;;;6309044;22;20127;-93
2023/06/04 09:29:08;;;;;;;;;;;;;;;;;;6307370;22;20136;-94
2023/06/04 09:31:39;;;;;;;;;;;;;;;;;;6308392;22;19915;-94
2023/06/04 09:34:05;;;;;;;;;;;;;;;;;;6280218;22;19919;-92
2023/06/04 09:36:31;;;;;;;;;;;;;;;;;;6308826;22;19915;-93
2023/06/04 09:39:00;;;;;;;;;;;;;;;;;;6282683;22;19915;-93
2023/06/04 09:41:29;;;;;;;;;;;;;;;;;;6309132;22;19922;-93
2023/06/04 09:43:55;;;;;;;;;;;;;;;;;;6282980;22;19915;-90
2023/06/04 09:46:21;;;;;;;;;;;;;;;;;;6282618;22;19915;-91
2023/06/04 09:48:47;;;;;;;;;;;;;;;;;;6307225;22;19959;-92
2023/06/04 09:51:13;;;;;;;;;;;;;;;;;;6306153;22;19925;-91
2023/06/04 09:53:39;;;;;;;;;;;;;;;;;;6305711;22;19922;-92
2023/06/04 09:56:06;;;;;;;;;;;;;;;;;;6278874;22;19914;-89
2023/06/04 09:58:32;;;;;;;;;;;;;;;;;;6279212;22;19922;-91
2023/06/04 10:00:58;;;;;;;;;;;;;;;;;;6305049;22;19918;-91
2023/06/04 10:03:25;;;;;;;;;;;;;;;;;;6280753;22;19915;-92
2023/06/04 10:05:51;;;;;;;;;;;;;;;;;;6280428;22;19922;-92
2023/06/04 10:08:20;;;;;;;;;;;;;;;;;;6306262;22;19997;-91
2023/06/04 10:10:46;;;;;;;;;;;;;;;;;;6283037;22;20332;-92
2023/06/04 10:13:12;;;;;;;;;;;;;;;;;;6282624;22;19915;-92
2023/06/04 10:15:38;;;;;;;;;;;;;;;;;;6281718;22;19915;-92
2023/06/04 10:18:04;;;;;;;;;;;;;;;;;;6280539;22;19985;-92
2023/06/04 10:20:30;;;;;;;;;;;;;;;;;;6305901;22;19922;-92
2023/06/04 10:22:59;;;;;;;;;;;;;;;;;;6306150;22;19922;-93
2023/06/04 10:25:25;;;;;;;;;;;;;;;;;;6280286;22;19989;-92
2023/06/04 10:27:51;;;;;;;;;;;;;;;;;;6306394;22;19918;-92
2023/06/04 10:30:17;;;;;;;;;;;;;;;;;;6280601;22;19963;-95
2023/06/04 10:32:43;;;;;;;;;;;;;;;;;;6281026;22;19968;-94
2023/06/04 10:35:09;;;;;;;;;;;;;;;;;;6307785;22;19921;-94
2023/06/04 10:37:35;;;;;;;;;;;;;;;;;;6280519;22;19915;-94
2023/06/04 10:40:04;;;;;;;;;;;;;;;;;;6279721;22;19918;-93
2023/06/04 10:42:30;;;;;;;;;;;;;;;;;;6280527;22;19914;-94
2023/06/04 10:44:56;;;;;;;;;;;;;;;;;;6305479;22;19922;-94
2023/06/04 10:47:22;;;;;;;;;;;;;;;;;;6279540;22;19993;-95
2023/06/04 10:49:48;;;;;;;;;;;;;;;;;;6279865;22;19961;-94
2023/06/04 10:52:14;;;;;;;;;;;;;;;;;;6279908;22;19922;-96
2023/06/04 10:54:40;;;;;;;;;;;;;;;;;;6280699;22;19915;-95
2023/06/04 10:57:09;;;;;;;;;;;;;;;;;;6306024;22;20262;-94
2023/06/04 10:59:36;;;;;;;;;;;;;;;;;;6305897;22;19915;-93
2023/06/04 11:02:02;;;;;;;;;;;;;;;;;;6306527;22;19958;-94
2023/06/04 11:04:28;;;;;;;;;;;;;;;;;;6309311;22;19923;-95
2023/06/04 11:06:53;;;;;;;;;;;;;;;;;;6284932;22;19950;-95
2023/06/04 11:09:20;;;;;;;;;;;;;;;;;;6283761;22;19919;-95
2023/06/04 11:11:46;;;;;;;;;;;;;;;;;;6281656;22;20003;-94
2023/06/04 11:14:17;;;;;;;;;;;;;;;;;;6306092;22;19919;-94
2023/06/04 11:16:43;;;;;;;;;;;;;;;;;;6279639;22;19919;-93
2023/06/04 11:19:09;;;;;;;;;;;;;;;;;;6305419;22;19914;-92
2023/06/04 11:21:38;;;;;;;;;;;;;;;;;;6279598;22;19923;-93
2023/06/04 11:24:07;;;;;;;;;;;;;;;;;;6280060;22;19915;-92
2023/06/04 11:26:33;;;;;;;;;;;;;;;;;;6306169;22;19923;-93
2023/06/04 11:28:59;;;;;;;;;;;;;;;;;;6306519;22;19994;-92
2023/06/04 11:31:25;;;;;;;;;;;;;;;;;;6280841;22;20321;-92
2023/06/04 11:33:51;;;;;;;;;;;;;;;;;;6281510;22;19915;-93
2023/06/04 11:36:17;;;;;;;;;;;;;;;;;;6307039;22;19990;-93
2023/06/04 11:38:46;;;;;;;;;;;;;;;;;;6306872;22;19998;-90
2023/06/04 11:41:12;;;;;;;;;;;;;;;;;;6306694;22;19965;-95
2023/06/04 11:43:43;;;;;;;;;;;;;;;;;;6307819;22;20296;-92
2023/06/04 11:46:09;;;;;;;;;;;;;;;;;;6307663;22;19921;-94
2023/06/04 11:48:38;;;;;;;;;;;;;;;;;;6282759;22;19919;-91
2023/06/04 11:51:05;;;;;;;;;;;;;;;;;;6307165;22;19915;-93
2023/06/04 11:53:31;;;;;;;;;;;;;;;;;;6280952;22;20100;-92
2023/06/04 11:55:57;;;;;;;;;;;;;;;;;;6279652;22;19915;-92
2023/06/04 11:58:26;;;;;;;;;;;;;;;;;;6307570;22;19922;-92
2023/06/04 12:00:51;;;;;;;;;;;;;;;;;;6281057;22;19989;-93
2023/06/04 12:03:18;;;;;;;;;;;;;;;;;;6280731;22;19914;-92
2023/06/04 12:05:45;;;;;;;;;;;;;;;;;;6306048;22;20060;-93
2023/06/04 12:08:11;;;;;;;;;;;;;;;;;;6306378;22;20325;-93
2023/06/04 12:10:40;;;;;;;;;;;;;;;;;;6281178;22;19937;-96
2023/06/04 12:13:06;;;;;;;;;;;;;;;;;;6280991;22;20339;-94
2023/06/04 12:15:32;;;;;;;;;;;;;;;;;;6306994;22;19986;-94
2023/06/04 12:17:58;;;;;;;;;;;;;;;;;;6307143;22;19914;-95
2023/06/04 12:20:24;;;;;;;;;;;;;;;;;;6280767;22;19915;-94
2023/06/04 12:22:52;;;;;;;;;;;;;;;;;;6280835;22;19969;-93
2023/06/04 12:25:17;;;;;;;;;;;;;;;;;;6280513;22;20247;-95
2023/06/04 12:27:48;;;;;;;;;;;;;;;;;;6305802;22;19926;-94
2023/06/04 12:30:15;;;;;;;;;;;;;;;;;;6281175;22;19985;-96
2023/06/04 12:32:42;;;;;;;;;;;;;;;;;;6308366;22;19914;-95
2023/06/04 12:35:08;;;;;;;;;;;;;;;;;;6282267;22;20013;-96
2023/06/04 12:37:34;;;;;;;;;;;;;;;;;;6308127;22;19937;-96
2023/06/04 12:40:00;;;;;;;;;;;;;;;;;;6283570;22;19915;-96
2023/06/04 12:42:31;;;;;;;;;;;;;;;;;;6311079;22;19914;-94
2023/06/04 12:44:57;;;;;;;;;;;;;;;;;;6310554;22;19922;-94
2023/06/04 12:47:23;;;;;;;;;;;;;;;;;;6284424;22;19922;-95
2023/06/04 12:49:49;;;;;;;;;;;;;;;;;;6282563;22;19921;-93
2023/06/04 12:52:15;;;;;;;;;;;;;;;;;;6282208;22;19922;-92
2023/06/04 12:54:41;;;;;;;;;;;;;;;;;;6283013;22;19915;-92
2023/06/04 12:57:07;;;;;;;;;;;;;;;;;;6279736;22;19976;-93
2023/06/04 12:59:32;;;;;;;;;;;;;;;;;;6281210;22;19919;-92
2023/06/04 13:01:58;;;;;;;;;;;;;;;;;;6305455;22;20381;-91
2023/06/04 13:04:24;;;;;;;;;;;;;;;;;;6280252;22;19914;-92
2023/06/04 13:06:52;;;;;;;;;;;;;;;;;;6280090;22;20352;-95
2023/06/04 13:09:20;;;;;;;;;;;;;;;;;;6279919;22;20336;-90
2023/06/04 13:11:46;;;;;;;;;;;;;;;;;;6305179;22;20325;-91
2023/06/04 13:14:12;;;;;;;;;;;;;;;;;;6279093;22;19925;-91
2023/06/04 13:16:38;;;;;;;;;;;;;;;;;;6305259;22;19915;-91
2023/06/04 13:19:04;;;;;;;;;;;;;;;;;;6304873;22;20018;-91
2023/06/04 13:21:30;;;;;;;;;;;;;;;;;;6306536;22;20005;-93
2023/06/04 13:23:56;;;;;;;;;;;;;;;;;;6280108;22;19946;-90
2023/06/04 13:26:22;;;;;;;;;;;;;;;;;;6279335;22;19918;-92
2023/06/04 13:28:48;;;;;;;;;;;;;;;;;;6279184;22;19918;-91
2023/06/04 13:31:14;;;;;;;;;;;;;;;;;;6305860;22;19915;-92
2023/06/04 13:33:41;;;;;;;;;;;;;;;;;;6279492;22;19983;-91
2023/06/04 13:36:07;;;;;;;;;;;;;;;;;;6279947;22;20368;-91
2023/06/04 13:38:33;;;;;;;;;;;;;;;;;;6279449;22;19926;-92
2023/06/04 13:41:00;;;;;;;;;;;;;;;;;;6304983;22;19922;-91
2023/06/04 13:43:26;;;;;;;;;;;;;;;;;;6279082;22;19919;-91
2023/06/04 13:45:52;;;;;;;;;;;;;;;;;;6278675;22;19919;-91
2023/06/04 13:48:18;;;;;;;;;;;;;;;;;;6278870;22;20018;-91
2023/06/04 13:50:44;;;;;;;;;;;;;;;;;;6305261;22;19950;-91
2023/06/04 13:53:10;;;;;;;;;;;;;;;;;;6305316;22;19922;-91
2023/06/04 13:55:36;;;;;;;;;;;;;;;;;;6279341;22;19915;-91
2023/06/04 13:58:02;;;;;;;;;;;;;;;;;;6279487;22;20188;-91
2023/06/04 14:00:29;;;;;;;;;;;;;;;;;;6279170;22;20390;-91
2023/06/04 14:02:55;;;;;;;;;;;;;;;;;;6278584;22;19922;-91
2023/06/04 14:05:21;;;;;;;;;;;;;;;;;;6306269;22;20252;-91
2023/06/04 14:07:47;;;;;;;;;;;;;;;;;;6278345;22;19969;-91
2023/06/04 14:10:13;;;;;;;;;;;;;;;;;;6305054;22;20032;-91
2023/06/04 14:12:40;;;;;;;;;;;;;;;;;;6279190;22;19954;-91
2023/06/04 14:15:06;;;;;;;;;;;;;;;;;;6279631;22;19922;-91
2023/06/04 14:17:34;;;;;;;;;;;;;;;;;;6279170;22;20324;-91
2023/06/04 14:20:00;;;;;;;;;;;;;;;;;;6279608;22;20383;-91
2023/06/04 14:22:25;;;;;;;;;;;;;;;;;;6305414;22;20124;-90
2023/06/04 14:24:51;;;;;;;;;;;;;;;;;;6278778;22;20329;-90
2023/06/04 14:27:17;;;;;;;;;;;;;;;;;;6278726;22;19922;-91
2023/06/04 14:29:43;;;;;;;;;;;;;;;;;;6278580;22;19923;-91
2023/06/04 14:32:09;;;;;;;;;;;;;;;;;;6278964;22;19915;-91
2023/06/04 14:34:35;;;;;;;;;;;;;;;;;;6304674;22;19915;-90
2023/06/04 14:37:01;;;;;;;;;;;;;;;;;;6278503;22;19915;-90
2023/06/04 14:39:27;;;;;;;;;;;;;;;;;;6278465;22;19915;-90
2023/06/04 14:41:53;;;;;;;;;;;;;;;;;;6304414;22;19918;-90
2023/06/04 14:44:20;;;;;;;;;;;;;;;;;;6278272;22;19915;-90
2023/06/04 14:46:45;;;;;;;;;;;;;;;;;;6279289;22;20325;-91
2023/06/04 14:49:11;;;;;;;;;;;;;;;;;;6304481;22;19997;-90
2023/06/04 14:51:37;;;;;;;;;;;;;;;;;;6278759;22;19922;-90
2023/06/04 14:54:03;;;;;;;;;;;;;;;;;;6279060;22;19919;-91
2023/06/04 14:56:30;;;;;;;;;;;;;;;;;;6278673;22;19998;-90
2023/06/04 14:58:56;;;;;;;;;;;;;;;;;;6278720;22;19914;-90
2023/06/04 15:01:25;;;;;;;;;;;;;;;;;;6305490;22;19923;-90
2023/06/04 15:03:51;;;;;;;;;;;;;;;;;;6279843;22;19986;-91
2023/06/04 15:06:17;;;;;;;;;;;;;;;;;;6306541;22;19915;-89
2023/06/04 15:08:43;;;;;;;;;;;;;;;;;;6281022;22;19972;-91
2023/06/04 15:11:09;;;;;;;;;;;;;;;;;;6280687;22;19915;-91
2023/06/04 15:13:35;;;;;;;;;;;;;;;;;;6280650;22;19922;-90
2023/06/04 15:16:01;;;;;;;;;;;;;;;;;;6282742;22;19980;-91
2023/06/04 15:18:27;;;;;;;;;;;;;;;;;;6306460;22;20349;-90
2023/06/04 15:20:53;;;;;;;;;;;;;;;;;;6306799;22;19971;-91
2023/06/04 15:23:19;;;;;;;;;;;;;;;;;;6307278;22;19915;-90
2023/06/04 15:25:45;;;;;;;;;;;;;;;;;;6280896;22;19919;-90
2023/06/04 15:28:11;;;;;;;;;;;;;;;;;;6280690;22;19969;-91
2023/06/04 15:30:37;;;;;;;;;;;;;;;;;;6306846;22;20284;-92
2023/06/04 15:33:03;;;;;;;;;;;;;;;;;;6307920;22;20336;-91
2023/06/04 15:35:29;;;;;;;;;;;;;;;;;;6306015;22;19915;-91
2023/06/04 15:38:00;;;;;;;;;;;;;;;;;;6280482;22;19997;-90
2023/06/04 15:40:26;;;;;;;;;;;;;;;;;;6306848;22;19914;-92
2023/06/04 15:42:53;;;;;;;;;;;;;;;;;;6306058;22;19930;-90
2023/06/04 15:45:24;;;;;;;;;;;;;;;;;;6281870;22;19922;-96
2023/06/04 15:47:50;;;;;;;;;;;;;;;;;;6285804;22;19919;-96
2023/06/04 15:50:16;;;;;;;;;;;;;;;;;;6284096;22;19941;-96
2023/06/04 15:52:42;;;;;;;;;;;;;;;;;;6284615;22;20305;-94
2023/06/04 15:55:08;;;;;;;;;;;;;;;;;;6308911;22;20313;-96
2023/06/04 15:57:34;;;;;;;;;;;;;;;;;;6286511;22;19918;-95
2023/06/04 16:00:00;;;;;;;;;;;;;;;;;;6286864;22;19915;-95
2023/06/04 16:02:26;;;;;;;;;;;;;;;;;;6263651;22;20371;-96
2023/06/04 16:04:52;;;;;;;;;;;;;;;;;;6285063;22;19915;-94
2023/06/04 16:07:18;;;;;;;;;;;;;;;;;;6259666;22;20214;-96
2023/06/04 16:09:44;;;;;;;;;;;;;;;;;;6308760;22;19926;-94
2023/06/04 16:12:10;;;;;;;;;;;;;;;;;;6254203;22;19915;-94
2023/06/04 16:14:36;;;;;;;;;;;;;;;;;;6254680;22;19965;-94
2023/06/04 16:17:03;;;;;;;;;;;;;;;;;;6254358;22;19968;-94
2023/06/04 16:19:29;;;;;;;;;;;;;;;;;;6279548;22;19940;-94
2023/06/04 16:21:55;;;;;;;;;;;;;;;;;;6282555;22;19983;-94
2023/06/04 16:24:26;;;;;;;;;;;;;;;;;;6309255;22;22029;-96
2023/06/04 16:26:52;;;;;;;;;;;;;;;;;;6258589;22;19915;-94
2023/06/04 16:29:18;;;;;;;;;;;;;;;;;;6280722;22;20048;-94
2023/06/04 16:31:45;;;;;;;;;;;;;;;;;;6307103;22;19919;-94
2023/06/04 16:34:11;;;;;;;;;;;;;;;;;;6255055;22;19915;-94
2023/06/04 16:36:37;;;;;;;;;;;;;;;;;;6255816;22;19971;-95
2023/06/04 16:39:03;;;;;;;;;;;;;;;;;;6281250;22;19919;-94
2023/06/04 16:41:29;;;;;;;;;;;;;;;;;;6254882;22;19980;-94
2023/06/04 16:43:55;;;;;;;;;;;;;;;;;;6254770;22;19945;-96
2023/06/04 16:46:21;;;;;;;;;;;;;;;;;;6252692;22;19925;-94
2023/06/04 16:48:47;;;;;;;;;;;;;;;;;;6254220;22;19919;-95
2023/06/04 16:51:13;;;;;;;;;;;;;;;;;;6254437;22;19915;-94
2023/06/04 16:53:39;;;;;;;;;;;;;;;;;;6255128;22;19919;-93
2023/06/04 16:56:10;;;;;;;;;;;;;;;;;;6281125;22;19963;-93
2023/06/04 16:58:39;;;;;;;;;;;;;;;;;;6279952;22;20305;-93
2023/06/04 17:01:08;;;;;;;;;;;;;;;;;;6264124;22;19919;-94
2023/06/04 17:03:34;;;;;;;;;;;;;;;;;;6279394;22;19938;-93
2023/06/04 17:06:00;;;;;;;;;;;;;;;;;;6305107;22;19915;-93